sensor_id;sensor_type;location;lat;lon;timestamp;pressure;altitude;pressure_sealevel;temperature;humidity
20145;BME280;10233;50.814;6.590;2023-06-26T00:00:27;99944.16;;;19.79;100.00
20145;BME280;10233;50.814;6.590;2023-06-26T00:01:28;99950.34;;;19.79;100.00
20145;BME280;10233;50.814;6.590;2023-06-26T00:02:31;99943.34;;;19.83;100.00
20145;BME280;10233;50.814;6.590;2023-06-26T00:03:33;99940.13;;;19.86;100.00
20145;BME280;10233;50.814;6.590;2023-06-26T00:04:33;99940.13;;;19.86;100.00
20145;BME280;10233;50.814;6.590;2023-06-26T00:05:35;99941.47;;;19.74;100.00
20145;BME280;10233;50.814;6.590;2023-06-26T00:06:36;99939.03;;;19.77;100.00
20145;BME280;10233;50.814;6.590;2023-06-26T00:07:38;99941.19;;;19.75;100.00
20145;BME280;10233;50.814;6.590;2023-06-26T00:08:39;99944.44;;;19.77;100.00
20145;BME280;10233;50.814;6.590;2023-06-26T00:09:39;99944.97;;;19.79;100.00
20145;BME280;10233;50.814;6.590;2023-06-26T00:10:40;99938.50;;;19.80;100.00
20145;BME280;10233;50.814;6.590;2023-06-26T00:11:40;99939.84;;;19.78;100.00
20145;BME280;10233;50.814;6.590;2023-06-26T00:12:41;99945.25;;;19.78;100.00
20145;BME280;10233;50.814;6.590;2023-06-26T00:13:42;99943.34;;;19.78;100.00
20145;BME280;10233;50.814;6.590;2023-06-26T00:14:42;99946.03;;;19.78;100.00
20145;BME280;10233;50.814;6.590;2023-06-26T00:15:42;99945.50;;;19.76;100.00
20145;BME280;10233;50.814;6.590;2023-06-26T00:16:43;99940.91;;;19.72;100.00
20145;BME280;10233;50.814;6.590;2023-06-26T00:17:43;99942.81;;;19.76;100.00
20145;BME280;10233;50.814;6.590;2023-06-26T00:18:45;99941.19;;;19.70;100.00
20145;BME280;10233;50.814;6.590;2023-06-26T00:19:45;99939.28;;;19.71;100.00
20145;BME280;10233;50.814;6.590;2023-06-26T00:20:46;99937.41;;;19.71;100.00
20145;BME280;10233;50.814;6.590;2023-06-26T00:21:46;99943.59;;;19.67;100.00
20145;BME280;10233;50.814;6.590;2023-06-26T00:22:48;99948.47;;;19.65;100.00
20145;BME280;10233;50.814;6.590;2023-06-26T00:23:51;99946.28;;;19.62;100.00
20145;BME280;10233;50.814;6.590;2023-06-26T00:24:51;99937.41;;;19.61;100.00
20145;BME280;10233;50.814;6.590;2023-06-26T00:25:52;99945.50;;;19.61;100.00
20145;BME280;10233;50.814;6.590;2023-06-26T00:26:52;99941.97;;;19.56;100.00
20145;BME280;10233;50.814;6.590;2023-06-26T00:27:54;99940.88;;;19.52;100.00
20145;BME280;10233;50.814;6.590;2023-06-26T00:28:55;99937.91;;;19.48;100.00
20145;BME280;10233;50.814;6.590;2023-06-26T00:29:55;99945.47;;;19.46;100.00
20145;BME280;10233;50.814;6.590;2023-06-26T00:30:58;99937.38;;;19.46;100.00
20145;BME280;10233;50.814;6.590;2023-06-26T00:31:58;99934.41;;;19.48;100.00
20145;BME280;10233;50.814;6.590;2023-06-26T00:33:00;99935.22;;;19.48;100.00
20145;BME280;10233;50.814;6.590;2023-06-26T00:34:01;99939.00;;;19.42;100.00
20145;BME280;10233;50.814;6.590;2023-06-26T00:35:02;99933.88;;;19.41;100.00
20145;BME280;10233;50.814;6.590;2023-06-26T00:36:03;99936.28;;;19.42;100.00
20145;BME280;10233;50.814;6.590;2023-06-26T00:37:04;99937.38;;;19.36;100.00
20145;BME280;10233;50.814;6.590;2023-06-26T00:38:05;99934.94;;;19.35;100.00
20145;BME280;10233;50.814;6.590;2023-06-26T00:39:05;99936.28;;;19.37;100.00
20145;BME280;10233;50.814;6.590;2023-06-26T00:40:06;99933.88;;;19.41;100.00
20145;BME280;10233;50.814;6.590;2023-06-26T00:41:07;99938.72;;;19.39;100.00
20145;BME280;10233;50.814;6.590;2023-06-26T00:42:12;99931.97;;;19.36;100.00
20145;BME280;10233;50.814;6.590;2023-06-26T00:43:13;99937.63;;;19.35;100.00
20145;BME280;10233;50.814;6.590;2023-06-26T00:44:13;99937.91;;;19.33;100.00
20145;BME280;10233;50.814;6.590;2023-06-26T00:45:14;99936.78;;;19.29;100.00
20145;BME280;10233;50.814;6.590;2023-06-26T00:46:14;99932.97;;;19.20;100.00
20145;BME280;10233;50.814;6.590;2023-06-26T00:47:15;99937.88;;;19.23;100.00
20145;BME280;10233;50.814;6.590;2023-06-26T00:48:16;99939.19;;;19.21;100.00
20145;BME280;10233;50.814;6.590;2023-06-26T00:49:17;99943.72;;;19.15;100.00
20145;BME280;10233;50.814;6.590;2023-06-26T00:50:18;99941.59;;;19.17;100.00
20145;BME280;10233;50.814;6.590;2023-06-26T00:51:19;99932.16;;;19.15;100.00
20145;BME280;10233;50.814;6.590;2023-06-26T00:52:20;99933.78;;;19.16;100.00
20145;BME280;10233;50.814;6.590;2023-06-26T00:53:21;99937.25;;;19.11;100.00
20145;BME280;10233;50.814;6.590;2023-06-26T00:54:22;99942.63;;;19.11;100.00
20145;BME280;10233;50.814;6.590;2023-06-26T00:55:23;99934.53;;;19.11;100.00
20145;BME280;10233;50.814;6.590;2023-06-26T00:56:24;99936.19;;;19.07;100.00
20145;BME280;10233;50.814;6.590;2023-06-26T00:57:24;99936.72;;;19.09;100.00
20145;BME280;10233;50.814;6.590;2023-06-26T00:58:25;99927.03;;;19.18;100.00
20145;BME280;10233;50.814;6.590;2023-06-26T00:59:26;99940.00;;;19.26;100.00
20145;BME280;10233;50.814;6.590;2023-06-26T01:00:26;99930.88;;;19.22;100.00
20145;BME280;10233;50.814;6.590;2023-06-26T01:01:27;99929.19;;;19.21;100.00
20145;BME280;10233;50.814;6.590;2023-06-26T01:02:27;99928.38;;;19.21;100.00
20145;BME280;10233;50.814;6.590;2023-06-26T01:03:33;99934.63;;;19.26;100.00
20145;BME280;10233;50.814;6.590;2023-06-26T01:04:34;99920.09;;;19.32;100.00
20145;BME280;10233;50.814;6.590;2023-06-26T01:05:34;99928.44;;;19.26;100.00
20145;BME280;10233;50.814;6.590;2023-06-26T01:06:35;99930.31;;;19.25;100.00
20145;BME280;10233;50.814;6.590;2023-06-26T01:07:36;99920.59;;;19.24;100.00
20145;BME280;10233;50.814;6.590;2023-06-26T01:08:38;99924.59;;;19.17;100.00
20145;BME280;10233;50.814;6.590;2023-06-26T01:09:39;99930.25;;;19.15;100.00
20145;BME280;10233;50.814;6.590;2023-06-26T01:10:40;99930.50;;;19.09;100.00
20145;BME280;10233;50.814;6.590;2023-06-26T01:11:41;99924.84;;;19.05;100.00
20145;BME280;10233;50.814;6.590;2023-06-26T01:12:42;99928.84;;;18.98;100.00
20145;BME280;10233;50.814;6.590;2023-06-26T01:13:43;99925.28;;;18.87;100.00
20145;BME280;10233;50.814;6.590;2023-06-26T01:14:46;99925.28;;;18.82;100.00
20145;BME280;10233;50.814;6.590;2023-06-26T01:15:47;99924.22;;;18.78;100.00
20145;BME280;10233;50.814;6.590;2023-06-26T01:16:49;99925.56;;;18.81;100.00
20145;BME280;10233;50.814;6.590;2023-06-26T01:17:50;99925.28;;;18.82;100.00
20145;BME280;10233;50.814;6.590;2023-06-26T01:18:52;99923.16;;;18.84;100.00
20145;BME280;10233;50.814;6.590;2023-06-26T01:19:53;99923.16;;;18.84;100.00
20145;BME280;10233;50.814;6.590;2023-06-26T01:20:54;99928.81;;;18.88;100.00
20145;BME280;10233;50.814;6.590;2023-06-26T01:22:19;99926.13;;;18.93;100.00
20145;BME280;10233;50.814;6.590;2023-06-26T01:23:29;99929.66;;;18.98;100.00
20145;BME280;10233;50.814;6.590;2023-06-26T01:24:35;99923.50;;;19.08;100.00
20145;BME280;10233;50.814;6.590;2023-06-26T01:26:51;99927.56;;;19.15;100.00
20145;BME280;10233;50.814;6.590;2023-06-26T01:27:53;99926.00;;;19.24;100.00
20145;BME280;10233;50.814;6.590;2023-06-26T01:28:56;99922.19;;;19.20;100.00
20145;BME280;10233;50.814;6.590;2023-06-26T01:30:02;99927.56;;;19.20;100.00
20145;BME280;10233;50.814;6.590;2023-06-26T01:31:05;99926.47;;;19.16;100.00
20145;BME280;10233;50.814;6.590;2023-06-26T01:32:06;99934.03;;;19.14;100.00
20145;BME280;10233;50.814;6.590;2023-06-26T01:33:06;99929.72;;;19.13;100.00
20145;BME280;10233;50.814;6.590;2023-06-26T01:34:07;99928.91;;;19.18;100.00
20145;BME280;10233;50.814;6.590;2023-06-26T01:35:08;99921.13;;;19.26;100.00
20145;BME280;10233;50.814;6.590;2023-06-26T01:36:10;99919.84;;;19.34;100.00
20145;BME280;10233;50.814;6.590;2023-06-26T01:37:11;99914.72;;;19.37;100.00
20145;BME280;10233;50.814;6.590;2023-06-26T01:38:19;99919.53;;;19.35;100.00
20145;BME280;10233;50.814;6.590;2023-06-26T01:39:20;99926.03;;;19.34;100.00
20145;BME280;10233;50.814;6.590;2023-06-26T01:40:21;99918.47;;;19.31;100.00
20145;BME280;10233;50.814;6.590;2023-06-26T01:41:21;99930.88;;;19.27;100.00
20145;BME280;10233;50.814;6.590;2023-06-26T01:42:22;99914.44;;;19.34;100.00
20145;BME280;10233;50.814;6.590;2023-06-26T01:43:43;99921.44;;;19.30;100.00
20145;BME280;10233;50.814;6.590;2023-06-26T01:44:47;99920.34;;;19.31;100.00
20145;BME280;10233;50.814;6.590;2023-06-26T01:45:50;99924.91;;;19.25;100.00
20145;BME280;10233;50.814;6.590;2023-06-26T01:47:04;99921.66;;;19.18;100.00
20145;BME280;10233;50.814;6.590;2023-06-26T01:48:06;99934.31;;;19.18;100.00
20145;BME280;10233;50.814;6.590;2023-06-26T01:49:24;99918.13;;;19.18;100.00
20145;BME280;10233;50.814;6.590;2023-06-26T01:50:28;99915.22;;;19.29;100.00
20145;BME280;10233;50.814;6.590;2023-06-26T01:51:34;99918.19;;;19.28;100.00
20145;BME280;10233;50.814;6.590;2023-06-26T01:54:05;99922.22;;;19.25;100.00
20145;BME280;10233;50.814;6.590;2023-06-26T01:55:26;99930.81;;;19.12;100.00
20145;BME280;10233;50.814;6.590;2023-06-26T01:56:28;99929.78;;;19.23;100.00
20145;BME280;10233;50.814;6.590;2023-06-26T01:57:31;99924.94;;;19.30;100.00
20145;BME280;10233;50.814;6.590;2023-06-26T01:58:33;99937.28;;;19.21;100.00
20145;BME280;10233;50.814;6.590;2023-06-26T01:59:37;99931.97;;;19.31;100.00
20145;BME280;10233;50.814;6.590;2023-06-26T02:00:39;99927.09;;;19.23;100.00
20145;BME280;10233;50.814;6.590;2023-06-26T02:01:40;99932.22;;;19.30;100.00
20145;BME280;10233;50.814;6.590;2023-06-26T02:02:41;99933.59;;;19.37;100.00
20145;BME280;10233;50.814;6.590;2023-06-26T02:03:42;99926.59;;;19.41;100.00
20145;BME280;10233;50.814;6.590;2023-06-26T02:04:43;99930.63;;;19.39;100.00
20145;BME280;10233;50.814;6.590;2023-06-26T02:05:44;99932.53;;;19.48;100.00
20145;BME280;10233;50.814;6.590;2023-06-26T02:06:45;99926.03;;;19.49;100.00
20145;BME280;10233;50.814;6.590;2023-06-26T02:07:46;99926.03;;;19.44;100.00
20145;BME280;10233;50.814;6.590;2023-06-26T02:08:47;99931.69;;;19.38;100.00
20145;BME280;10233;50.814;6.590;2023-06-26T02:09:47;99926.84;;;19.40;100.00
20145;BME280;10233;50.814;6.590;2023-06-26T02:10:48;99923.34;;;19.49;100.00
20145;BME280;10233;50.814;6.590;2023-06-26T02:11:50;99933.34;;;19.54;100.00
20145;BME280;10233;50.814;6.590;2023-06-26T02:12:51;99933.34;;;19.54;100.00
20145;BME280;10233;50.814;6.590;2023-06-26T02:13:51;99931.72;;;19.63;100.00
20145;BME280;10233;50.814;6.590;2023-06-26T02:14:52;99930.13;;;19.72;100.00
20145;BME280;10233;50.814;6.590;2023-06-26T02:15:58;99934.16;;;19.84;100.00
20145;BME280;10233;50.814;6.590;2023-06-26T02:16:58;99935.25;;;19.88;100.00
20145;BME280;10233;50.814;6.590;2023-06-26T02:18:00;99934.16;;;19.94;100.00
20145;BME280;10233;50.814;6.590;2023-06-26T02:19:01;99938.50;;;19.95;100.00
20145;BME280;10233;50.814;6.590;2023-06-26T02:20:01;99937.69;;;19.95;100.00
20145;BME280;10233;50.814;6.590;2023-06-26T02:21:03;99936.59;;;19.96;100.00
20145;BME280;10233;50.814;6.590;2023-06-26T02:22:04;99939.56;;;19.99;100.00
20145;BME280;10233;50.814;6.590;2023-06-26T02:23:04;99938.22;;;19.92;100.00
20145;BME280;10233;50.814;6.590;2023-06-26T02:24:05;99931.19;;;19.86;100.00
20145;BME280;10233;50.814;6.590;2023-06-26T02:25:07;99936.84;;;19.74;100.00
20145;BME280;10233;50.814;6.590;2023-06-26T02:26:08;99936.34;;;19.77;100.00
20145;BME280;10233;50.814;6.590;2023-06-26T02:27:09;99935.81;;;19.85;100.00
20145;BME280;10233;50.814;6.590;2023-06-26T02:28:11;99936.84;;;19.89;100.00
20145;BME280;10233;50.814;6.590;2023-06-26T02:29:12;99939.31;;;19.91;100.00
20145;BME280;10233;50.814;6.590;2023-06-26T02:30:14;99943.34;;;19.83;100.00
20145;BME280;10233;50.814;6.590;2023-06-26T02:31:14;99950.91;;;19.86;100.00
20145;BME280;10233;50.814;6.590;2023-06-26T02:32:15;99952.00;;;19.80;100.00
20145;BME280;10233;50.814;6.590;2023-06-26T02:33:15;99950.66;;;19.88;100.00
20145;BME280;10233;50.814;6.590;2023-06-26T02:34:18;99959.03;;;19.91;100.00
20145;BME280;10233;50.814;6.590;2023-06-26T02:35:19;99958.78;;;20.13;100.00
20145;BME280;10233;50.814;6.590;2023-06-26T02:36:19;99959.53;;;20.38;100.00
20145;BME280;10233;50.814;6.590;2023-06-26T02:37:20;99960.31;;;20.59;100.00
20145;BME280;10233;50.814;6.590;2023-06-26T02:38:21;99969.97;;;20.80;100.00
20145;BME280;10233;50.814;6.590;2023-06-26T02:39:22;99966.72;;;20.93;100.00
20145;BME280;10233;50.814;6.590;2023-06-26T02:40:22;99967.78;;;21.02;100.00
20145;BME280;10233;50.814;6.590;2023-06-26T02:41:23;99965.50;;;21.24;100.00
20145;BME280;10233;50.814;6.590;2023-06-26T02:42:25;99964.13;;;21.26;100.00
20145;BME280;10233;50.814;6.590;2023-06-26T02:43:26;99958.13;;;21.39;100.00
20145;BME280;10233;50.814;6.590;2023-06-26T02:44:26;99964.56;;;21.48;100.00
20145;BME280;10233;50.814;6.590;2023-06-26T02:45:27;99963.44;;;21.54;100.00
20145;BME280;10233;50.814;6.590;2023-06-26T02:46:27;99962.28;;;21.65;100.00
20145;BME280;10233;50.814;6.590;2023-06-26T02:47:28;99957.66;;;21.76;100.00
20145;BME280;10233;50.814;6.590;2023-06-26T02:48:29;99964.13;;;21.80;100.00
20145;BME280;10233;50.814;6.590;2023-06-26T02:49:29;99962.72;;;21.87;100.00
20145;BME280;10233;50.814;6.590;2023-06-26T02:50:30;99965.13;;;21.89;100.00
20145;BME280;10233;50.814;6.590;2023-06-26T02:51:38;99971.31;;;21.94;100.00
20145;BME280;10233;50.814;6.590;2023-06-26T02:52:46;99964.22;;;21.98;100.00
20145;BME280;10233;50.814;6.590;2023-06-26T02:53:51;99969.63;;;22.03;100.00
20145;BME280;10233;50.814;6.590;2023-06-26T02:54:51;99964.47;;;22.02;100.00
20145;BME280;10233;50.814;6.590;2023-06-26T02:55:52;99972.59;;;22.07;100.00
20145;BME280;10233;50.814;6.590;2023-06-26T02:56:53;99969.06;;;22.06;100.00
20145;BME280;10233;50.814;6.590;2023-06-26T02:57:58;99959.59;;;22.04;100.00
20145;BME280;10233;50.814;6.590;2023-06-26T02:58:59;99964.47;;;22.07;100.00
20145;BME280;10233;50.814;6.590;2023-06-26T03:00:02;99964.69;;;22.10;100.00
20145;BME280;10233;50.814;6.590;2023-06-26T03:01:03;99966.31;;;22.11;100.00
20145;BME280;10233;50.814;6.590;2023-06-26T03:02:04;99963.91;;;22.05;100.00
20145;BME280;10233;50.814;6.590;2023-06-26T03:03:10;99964.75;;;22.05;100.00
20145;BME280;10233;50.814;6.590;2023-06-26T03:04:10;99962.81;;;22.06;100.00
20145;BME280;10233;50.814;6.590;2023-06-26T03:05:11;99964.19;;;22.03;100.00
20145;BME280;10233;50.814;6.590;2023-06-26T03:06:14;99968.47;;;22.14;100.00
20145;BME280;10233;50.814;6.590;2023-06-26T03:07:15;99966.84;;;22.08;100.00
20145;BME280;10233;50.814;6.590;2023-06-26T03:08:16;99965.44;;;22.16;100.00
20145;BME280;10233;50.814;6.590;2023-06-26T03:09:17;99968.19;;;22.11;100.00
20145;BME280;10233;50.814;6.590;2023-06-26T03:10:18;99973.66;;;22.06;100.00
20145;BME280;10233;50.814;6.590;2023-06-26T03:11:19;99969.88;;;22.07;100.00
20145;BME280;10233;50.814;6.590;2023-06-26T03:12:20;99980.94;;;22.10;100.00
20145;BME280;10233;50.814;6.590;2023-06-26T03:13:20;99977.16;;;22.11;100.00
20145;BME280;10233;50.814;6.590;2023-06-26T03:14:21;99967.91;;;22.12;100.00
20145;BME280;10233;50.814;6.590;2023-06-26T03:15:22;99972.97;;;22.24;100.00
20145;BME280;10233;50.814;6.590;2023-06-26T03:16:22;99968.75;;;22.13;100.00
20145;BME280;10233;50.814;6.590;2023-06-26T03:17:22;99968.16;;;22.16;100.00
20145;BME280;10233;50.814;6.590;2023-06-26T03:18:28;99970.63;;;22.12;100.00
20145;BME280;10233;50.814;6.590;2023-06-26T03:19:29;99966.81;;;22.13;100.00
20145;BME280;10233;50.814;6.590;2023-06-26T03:20:53;99971.22;;;22.09;100.00
20145;BME280;10233;50.814;6.590;2023-06-26T03:21:56;99971.72;;;22.11;100.00
20145;BME280;10233;50.814;6.590;2023-06-26T03:22:57;99968.47;;;22.14;100.00
20145;BME280;10233;50.814;6.590;2023-06-26T03:23:58;99973.09;;;22.09;100.00
20145;BME280;10233;50.814;6.590;2023-06-26T03:24:58;99975.03;;;22.03;100.00
20145;BME280;10233;50.814;6.590;2023-06-26T03:25:59;99978.00;;;22.02;100.00
20145;BME280;10233;50.814;6.590;2023-06-26T03:27:11;99969.06;;;22.06;100.00
20145;BME280;10233;50.814;6.590;2023-06-26T03:28:13;99974.47;;;22.06;100.00
20145;BME280;10233;50.814;6.590;2023-06-26T03:29:14;99979.66;;;22.03;100.00
20145;BME280;10233;50.814;6.590;2023-06-26T03:30:15;99969.56;;;22.08;100.00
20145;BME280;10233;50.814;6.590;2023-06-26T03:31:18;99979.66;;;22.03;100.00
20145;BME280;10233;50.814;6.590;2023-06-26T03:32:18;99972.63;;;21.97;100.00
20145;BME280;10233;50.814;6.590;2023-06-26T03:33:18;99978.59;;;21.99;100.00
20145;BME280;10233;50.814;6.590;2023-06-26T03:34:19;99982.63;;;22.01;100.00
20145;BME280;10233;50.814;6.590;2023-06-26T03:35:20;99975.66;;;21.95;100.00
20145;BME280;10233;50.814;6.590;2023-06-26T03:36:21;99971.22;;;22.04;100.00
20145;BME280;10233;50.814;6.590;2023-06-26T03:37:22;99968.56;;;21.99;100.00
20145;BME280;10233;50.814;6.590;2023-06-26T03:38:24;99968.88;;;21.98;100.00
20145;BME280;10233;50.814;6.590;2023-06-26T03:39:28;99965.09;;;21.94;100.00
20145;BME280;10233;50.814;6.590;2023-06-26T03:40:28;99970.50;;;21.94;100.00
20145;BME280;10233;50.814;6.590;2023-06-26T03:41:29;99969.13;;;21.96;100.00
20145;BME280;10233;50.814;6.590;2023-06-26T03:42:30;99965.84;;;21.99;100.00
20145;BME280;10233;50.814;6.590;2023-06-26T03:43:30;99972.09;;;22.00;100.00
20145;BME280;10233;50.814;6.590;2023-06-26T03:44:51;99974.84;;;21.95;100.00
20145;BME280;10233;50.814;6.590;2023-06-26T03:45:53;99974.28;;;21.98;100.00
20145;BME280;10233;50.814;6.590;2023-06-26T03:46:53;99977.22;;;22.01;100.00
20145;BME280;10233;50.814;6.590;2023-06-26T03:47:54;99970.78;;;21.92;100.00
20145;BME280;10233;50.814;6.590;2023-06-26T03:48:55;99976.72;;;21.94;100.00
20145;BME280;10233;50.814;6.590;2023-06-26T03:49:55;99983.81;;;21.90;100.00
20145;BME280;10233;50.814;6.590;2023-06-26T03:50:56;99980.59;;;21.83;100.00
20145;BME280;10233;50.814;6.590;2023-06-26T03:51:56;99980.81;;;21.92;100.00
20145;BME280;10233;50.814;6.590;2023-06-26T03:52:57;99981.06;;;21.95;100.00
20145;BME280;10233;50.814;6.590;2023-06-26T03:53:59;99988.56;;;22.03;100.00
20145;BME280;10233;50.814;6.590;2023-06-26T03:55:01;99975.03;;;22.03;100.00
20145;BME280;10233;50.814;6.590;2023-06-26T03:56:01;99987.97;;;22.11;100.00
20145;BME280;10233;50.814;6.590;2023-06-26T03:57:02;99979.94;;;22.01;100.00
20145;BME280;10233;50.814;6.590;2023-06-26T03:58:02;99991.28;;;22.03;100.00
20145;BME280;10233;50.814;6.590;2023-06-26T03:59:03;99985.63;;;22.00;100.00
20145;BME280;10233;50.814;6.590;2023-06-26T04:00:04;99988.53;;;22.08;100.00
20145;BME280;10233;50.814;6.590;2023-06-26T04:01:23;99990.50;;;22.03;100.00
20145;BME280;10233;50.814;6.590;2023-06-26T04:02:24;99995.66;;;21.99;100.00
20145;BME280;10233;50.814;6.590;2023-06-26T04:03:24;99998.31;;;22.04;100.00
20145;BME280;10233;50.814;6.590;2023-06-26T04:04:25;100003.72;;;22.04;100.00
20145;BME280;10233;50.814;6.590;2023-06-26T04:05:25;99996.78;;;21.93;100.00
20145;BME280;10233;50.814;6.590;2023-06-26T04:06:26;99997.84;;;21.97;100.00
20145;BME280;10233;50.814;6.590;2023-06-26T04:07:28;100002.44;;;21.97;100.00
20145;BME280;10233;50.814;6.590;2023-06-26T04:08:28;99996.69;;;22.03;100.00
20145;BME280;10233;50.814;6.590;2023-06-26T04:09:30;100009.19;;;21.99;100.00
20145;BME280;10233;50.814;6.590;2023-06-26T04:10:30;99999.69;;;22.07;100.00
20145;BME280;10233;50.814;6.590;2023-06-26T04:11:31;100008.13;;;22.00;100.00
20145;BME280;10233;50.814;6.590;2023-06-26T04:12:31;100010.78;;;22.05;100.00
20145;BME280;10233;50.814;6.590;2023-06-26T04:13:31;100017.28;;;22.04;100.00
20145;BME280;10233;50.814;6.590;2023-06-26T04:14:32;100014.28;;;22.06;100.00
20145;BME280;10233;50.814;6.590;2023-06-26T04:15:32;100019.13;;;22.14;100.00
20145;BME280;10233;50.814;6.590;2023-06-26T04:16:33;100026.97;;;22.15;100.00
20145;BME280;10233;50.814;6.590;2023-06-26T04:17:33;100023.16;;;22.16;100.00
20145;BME280;10233;50.814;6.590;2023-06-26T04:18:34;100022.66;;;22.14;100.00
20145;BME280;10233;50.814;6.590;2023-06-26T04:19:34;100030.50;;;22.11;100.00
20145;BME280;10233;50.814;6.590;2023-06-26T04:20:39;100033.47;;;22.14;100.00
20145;BME280;10233;50.814;6.590;2023-06-26T04:21:41;100036.72;;;22.16;100.00
20145;BME280;10233;50.814;6.590;2023-06-26T04:22:41;100035.59;;;22.17;100.00
20145;BME280;10233;50.814;6.590;2023-06-26T04:23:42;100037.72;;;22.25;100.00
20145;BME280;10233;50.814;6.590;2023-06-26T04:24:42;100027.94;;;22.29;100.00
20145;BME280;10233;50.814;6.590;2023-06-26T04:25:43;100040.44;;;22.25;100.00
20145;BME280;10233;50.814;6.590;2023-06-26T04:26:44;100040.41;;;22.30;100.00
20145;BME280;10233;50.814;6.590;2023-06-26T04:27:45;100037.31;;;22.42;100.00
20145;BME280;10233;50.814;6.590;2023-06-26T04:28:47;100046.81;;;22.39;100.00
20145;BME280;10233;50.814;6.590;2023-06-26T04:29:48;100046.66;;;22.26;99.07
20145;BME280;10233;50.814;6.590;2023-06-26T04:30:48;100047.50;;;22.21;99.31
20145;BME280;10233;50.814;6.590;2023-06-26T04:31:49;100047.59;;;22.11;100.00
20145;BME280;10233;50.814;6.590;2023-06-26T04:32:49;100054.84;;;22.16;100.00
20145;BME280;10233;50.814;6.590;2023-06-26T04:33:50;100055.03;;;22.29;100.00
20145;BME280;10233;50.814;6.590;2023-06-26T04:34:51;100058.09;;;22.18;100.00
20145;BME280;10233;50.814;6.590;2023-06-26T04:35:52;100058.09;;;22.18;100.00
20145;BME280;10233;50.814;6.590;2023-06-26T04:36:52;100062.00;;;22.07;100.00
20145;BME280;10233;50.814;6.590;2023-06-26T04:37:53;100056.28;;;22.03;100.00
20145;BME280;10233;50.814;6.590;2023-06-26T04:38:54;100056.50;;;22.17;100.00
20145;BME280;10233;50.814;6.590;2023-06-26T04:39:55;100058.16;;;22.13;100.00
20145;BME280;10233;50.814;6.590;2023-06-26T04:40:56;100061.22;;;21.96;100.00
20145;BME280;10233;50.814;6.590;2023-06-26T04:41:56;100057.41;;;22.02;100.00
20145;BME280;10233;50.814;6.590;2023-06-26T04:42:57;100059.34;;;21.92;100.00
20145;BME280;10233;50.814;6.590;2023-06-26T04:43:57;100063.41;;;21.94;100.00
20145;BME280;10233;50.814;6.590;2023-06-26T04:44:58;100060.41;;;21.96;100.00
20145;BME280;10233;50.814;6.590;2023-06-26T04:45:58;100071.50;;;21.99;100.00
20145;BME280;10233;50.814;6.590;2023-06-26T04:46:59;100066.66;;;21.96;100.00
20145;BME280;10233;50.814;6.590;2023-06-26T04:47:59;100065.31;;;21.94;100.00
20145;BME280;10233;50.814;6.590;2023-06-26T04:49:02;100063.84;;;22.11;100.00
20145;BME280;10233;50.814;6.590;2023-06-26T04:50:04;100067.72;;;22.00;100.00
20145;BME280;10233;50.814;6.590;2023-06-26T04:51:04;100073.13;;;22.00;100.00
20145;BME280;10233;50.814;6.590;2023-06-26T04:52:05;100069.34;;;21.96;100.00
20145;BME280;10233;50.814;6.590;2023-06-26T04:53:05;100072.31;;;22.00;100.00
20145;BME280;10233;50.814;6.590;2023-06-26T04:54:07;100065.31;;;21.94;100.00
20145;BME280;10233;50.814;6.590;2023-06-26T04:55:08;100063.94;;;21.96;100.00
20145;BME280;10233;50.814;6.590;2023-06-26T04:56:08;100068.09;;;21.84;100.00
20145;BME280;10233;50.814;6.590;2023-06-26T04:57:10;100071.31;;;21.86;100.00
20145;BME280;10233;50.814;6.590;2023-06-26T04:58:12;100063.94;;;21.96;100.00
20145;BME280;10233;50.814;6.590;2023-06-26T04:59:13;100073.19;;;21.90;100.00
20145;BME280;10233;50.814;6.590;2023-06-26T05:00:14;100069.94;;;21.88;100.00
20145;BME280;10233;50.814;6.590;2023-06-26T05:01:15;100070.00;;;21.78;100.00
20145;BME280;10233;50.814;6.590;2023-06-26T05:02:15;100070.78;;;21.84;100.00
20145;BME280;10233;50.814;6.590;2023-06-26T05:03:17;100068.91;;;21.79;100.00
20145;BME280;10233;50.814;6.590;2023-06-26T05:04:17;100071.06;;;21.82;100.00
20145;BME280;10233;50.814;6.590;2023-06-26T05:05:18;100073.81;;;21.67;100.00
20145;BME280;10233;50.814;6.590;2023-06-26T05:06:18;100076.53;;;21.72;100.00
20145;BME280;10233;50.814;6.590;2023-06-26T05:07:19;100070.88;;;21.69;100.00
20145;BME280;10233;50.814;6.590;2023-06-26T05:08:23;100074.63;;;21.63;100.00
20145;BME280;10233;50.814;6.590;2023-06-26T05:09:24;100068.22;;;21.54;100.00
20145;BME280;10233;50.814;6.590;2023-06-26T05:10:25;100079.53;;;21.61;100.00
20145;BME280;10233;50.814;6.590;2023-06-26T05:11:25;100087.19;;;21.49;100.00
20145;BME280;10233;50.814;6.590;2023-06-26T05:12:26;100083.94;;;21.47;100.00
20145;BME280;10233;50.814;6.590;2023-06-26T05:13:26;100085.47;;;21.63;100.00
20145;BME280;10233;50.814;6.590;2023-06-26T05:14:27;100077.13;;;21.54;100.00
20145;BME280;10233;50.814;6.590;2023-06-26T05:15:27;100085.78;;;21.61;100.00
20145;BME280;10233;50.814;6.590;2023-06-26T05:16:28;100074.91;;;21.66;100.00
20145;BME280;10233;50.814;6.590;2023-06-26T05:17:28;100079.25;;;21.67;100.00
20145;BME280;10233;50.814;6.590;2023-06-26T05:18:29;100081.44;;;21.70;100.00
20145;BME280;10233;50.814;6.590;2023-06-26T05:19:29;100086.84;;;21.60;100.00
20145;BME280;10233;50.814;6.590;2023-06-26T05:20:30;100083.59;;;21.63;100.00
20145;BME280;10233;50.814;6.590;2023-06-26T05:21:30;100080.59;;;21.65;100.00
20145;BME280;10233;50.814;6.590;2023-06-26T05:22:33;100075.97;;;21.65;100.00
20145;BME280;10233;50.814;6.590;2023-06-26T05:23:35;100075.19;;;21.65;100.00
20145;BME280;10233;50.814;6.590;2023-06-26T05:24:37;100088.44;;;21.76;100.00